Time;durP1;ratioP1;P1;durP2;ratioP2;P2;SDS_P1;SDS_P2;PMS_P1;PMS_P2;Temp;Humidity;BMP_temperature;BMP_pressure;BME280_temperature;BME280_humidity;BME280_pressure;Samples;Min_cycle;Max_cycle;Signal;HPM_P1;HPM_P2
2023/01/28 00:02:18;;;;;;;12.43;10.43;;;;;;;2.39;100.00;102944.69;4974111;28;20049;-61
2023/01/28 00:04:44;;;;;;;12.60;10.98;;;;;;;2.44;100.00;102950.91;4974268;28;20118;-62
2023/01/28 00:07:09;;;;;;;14.77;11.80;;;;;;;2.01;100.00;102881.00;4974214;28;20125;-61
2023/01/28 00:09:34;;;;;;;11.85;10.32;;;;;;;2.35;100.00;102951.47;4974070;28;20390;-62
2023/01/28 00:12:00;;;;;;;12.43;10.27;;;;;;;2.37;100.00;102955.00;4973563;28;20553;-61
2023/01/28 00:14:25;;;;;;;14.20;11.15;;;;;;;2.40;100.00;102960.31;4973946;28;20109;-62
2023/01/28 00:16:50;;;;;;;15.32;11.07;;;;;;;2.41;100.00;102948.22;4973790;28;20131;-61
2023/01/28 00:19:16;;;;;;;13.10;11.00;;;;;;;2.42;100.00;102947.38;4973838;28;20050;-61
2023/01/28 00:21:41;;;;;;;12.30;10.85;;;;;;;1.95;100.00;102863.50;4973383;28;20042;-61
2023/01/28 00:24:08;;;;;;;12.95;11.30;;;;;;;2.04;100.00;102881.13;4973824;28;20031;-61
2023/01/28 00:26:34;;;;;;;13.60;11.27;;;;;;;2.37;100.00;102941.13;4973583;28;20027;-61
2023/01/28 00:28:59;;;;;;;11.95;10.45;;;;;;;1.95;100.00;102876.47;4972251;28;20051;-61
2023/01/28 00:31:26;;;;;;;13.43;11.50;;;;;;;2.26;100.00;102923.47;4973886;28;20101;-62
2023/01/28 00:33:53;;;;;;;12.65;11.13;;;;;;;1.81;100.00;102845.66;4972691;28;20045;-61
2023/01/28 00:36:19;;;;;;;13.20;11.20;;;;;;;2.32;100.00;102942.69;4972325;28;20375;-62
2023/01/28 00:38:49;;;;;;;12.48;10.82;;;;;;;2.38;100.00;102959.38;4972058;28;20201;-62
2023/01/28 00:41:16;;;;;;;13.77;12.35;;;;;;;1.72;100.00;102829.75;4973723;28;20054;-62
2023/01/28 00:43:43;;;;;;;16.75;12.43;;;;;;;1.91;100.00;102865.91;4972388;28;20120;-61
2023/01/28 00:46:10;;;;;;;15.20;13.07;;;;;;;1.94;100.00;102869.50;4972313;28;20031;-61
2023/01/28 00:48:36;;;;;;;13.77;12.35;;;;;;;2.16;100.00;102910.97;4973152;28;20047;-62
2023/01/28 00:51:03;;;;;;;14.68;12.20;;;;;;;1.98;100.00;102868.78;4972179;28;20061;-61
2023/01/28 00:53:29;;;;;;;15.13;12.52;;;;;;;2.40;100.00;102956.81;4971952;28;20445;-61
2023/01/28 00:55:54;;;;;;;17.77;12.65;;;;;;;2.28;100.00;102929.59;4973011;28;20031;-62
2023/01/28 00:58:19;;;;;;;15.07;12.43;;;;;;;2.37;100.00;102952.41;4971671;28;20041;-61
2023/01/28 01:00:45;;;;;;;15.48;12.75;;;;;;;1.99;100.00;102869.66;4973079;28;20371;-62
2023/01/28 01:03:10;;;;;;;15.52;13.02;;;;;;;1.97;100.00;102869.63;4973256;28;20451;-61
2023/01/28 01:05:36;;;;;;;16.98;12.90;;;;;;;2.02;100.00;102877.56;4971724;28;20378;-61
2023/01/28 01:08:01;;;;;;;13.82;12.30;;;;;;;2.12;100.00;102897.84;4972019;28;20081;-59
2023/01/28 01:10:27;;;;;;;11.88;10.63;;;;;;;1.97;100.00;102871.31;4973024;28;20474;-62
2023/01/28 01:12:52;;;;;;;12.70;11.10;;;;;;;1.94;100.00;102868.63;4972714;28;20039;-61
2023/01/28 01:15:18;;;;;;;12.35;10.63;;;;;;;2.13;100.00;102903.06;4972589;28;20057;-59
2023/01/28 01:17:45;;;;;;;12.60;11.25;;;;;;;2.38;100.00;102959.38;4971869;28;20102;-60
2023/01/28 01:20:14;;;;;;;13.98;11.73;;;;;;;2.33;100.00;102968.75;4971751;28;20089;-59
2023/01/28 01:22:39;;;;;;;14.05;10.05;;;;;;;2.23;100.00;102944.16;4972826;28;20108;-62
2023/01/28 01:25:05;;;;;;;12.55;11.07;;;;;;;2.26;100.00;102939.06;4972619;28;20118;-62
2023/01/28 01:27:31;;;;;;;14.18;11.55;;;;;;;1.99;100.00;102890.44;4972919;28;20066;-61
2023/01/28 01:29:57;;;;;;;12.38;10.70;;;;;;;1.98;100.00;102899.97;4972973;28;20451;-58
2023/01/28 01:32:24;;;;;;;12.45;10.57;;;;;;;1.81;100.00;102864.69;4972203;28;20031;-61
2023/01/28 01:34:49;;;;;;;13.73;11.45;;;;;;;2.28;100.00;102949.47;4972850;28;20042;-60
2023/01/28 01:37:14;;;;;;;12.23;10.73;;;;;;;1.79;100.00;102863.78;4972676;28;20043;-61
2023/01/28 01:39:40;;;;;;;12.98;11.48;;;;;;;2.27;100.00;102950.34;4972797;28;20047;-62
2023/01/28 01:42:09;;;;;;;14.13;11.15;;;;;;;1.72;100.00;102854.00;4972073;28;20454;-59
2023/01/28 01:44:47;;;;;;;13.95;10.45;;;;;;;2.28;100.00;102948.63;4972596;28;20063;-61
2023/01/28 01:47:13;;;;;;;13.30;10.70;;;;;;;1.81;100.00;102876.81;4972869;28;20638;-62
2023/01/28 01:49:39;;;;;;;11.38;10.18;;;;;;;1.79;100.00;102868.97;4971511;28;20027;-60
2023/01/28 01:52:11;;;;;;;11.60;10.18;;;;;;;1.70;100.00;102866.94;4972595;28;20035;-60
2023/01/28 01:54:38;;;;;;;10.27;8.57;;;;;;;2.10;100.00;102941.06;4970915;28;20093;-60
2023/01/28 01:57:06;;;;;;;11.50;9.65;;;;;;;1.95;100.00;102901.56;4971453;28;20039;-58
2023/01/28 01:59:32;;;;;;;10.25;9.25;;;;;;;2.19;100.00;102943.97;4971072;28;20059;-56
2023/01/28 02:02:00;;;;;;;10.82;9.48;;;;;;;1.41;100.00;102801.81;4955248;28;20514;-55
2023/01/28 02:04:28;;;;;;;12.70;10.60;;;;;;;2.21;100.00;102942.31;4971479;28;20113;-59
2023/01/28 02:06:54;;;;;;;10.52;9.20;;;;;;;2.10;100.00;102928.09;4970843;28;20030;-59
2023/01/28 02:09:25;;;;;;;12.00;9.50;;;;;;;2.19;100.00;102967.34;4970849;28;20039;-59
2023/01/28 02:11:53;;;;;;;10.75;9.25;;;;;;;1.76;100.00;102880.94;4972419;28;20042;-59
2023/01/28 02:14:18;;;;;;;10.30;8.98;;;;;;;2.15;100.00;102955.09;4972340;28;20031;-61
2023/01/28 02:16:44;;;;;;;10.25;9.15;;;;;;;1.78;100.00;102898.34;4972361;28;20333;-59
2023/01/28 02:19:11;;;;;;;9.65;8.68;;;;;;;1.81;100.00;102895.00;4970959;28;20039;-56
2023/01/28 02:21:42;;;;;;;9.10;8.15;;;;;;;2.19;100.00;102962.16;4970589;28;20031;-58
2023/01/28 02:24:28;;;;;;;9.50;8.55;;;;;;;2.14;100.00;102968.91;4970897;28;20422;-60
2023/01/28 02:27:15;;;;;;;10.90;8.80;;;;;;;2.16;100.00;102982.88;4971040;28;20041;-60
2023/01/28 02:29:55;;;;;;;9.50;8.05;;;;;;;1.68;100.00;102894.56;4971463;28;20490;-60
2023/01/28 02:32:59;;;;;;;11.88;8.20;;;;;;;2.13;100.00;102968.03;4955202;28;20023;-59
2023/01/28 02:35:30;;;;;;;9.13;8.15;;;;;;;2.16;100.00;102988.06;4968945;28;20039;-59
2023/01/28 02:38:04;;;;;;;9.48;8.20;;;;;;;1.73;100.00;102894.69;4971130;28;20039;-59
2023/01/28 02:41:00;;;;;;;8.85;7.95;;;;;;;2.19;100.00;102970.84;4954690;28;20113;-60
2023/01/28 02:43:29;;;;;;;9.50;6.90;;;;;;;2.08;100.00;102951.38;4972442;28;20130;-59
2023/01/28 02:48:38;;;;;;;8.07;7.18;;;;;;;2.16;100.00;102975.06;4974836;28;20498;-61
2023/01/28 02:51:09;;;;;;;8.27;7.28;;;;;;;2.06;100.00;102955.66;4974596;28;20043;-61
2023/01/28 02:54:18;;;;;;;8.07;7.00;;;;;;;1.72;100.00;102897.25;4973932;28;20121;-61
2023/01/28 02:56:48;;;;;;;7.50;6.70;;;;;;;2.17;100.00;102976.81;4971294;28;20050;-60
2023/01/28 02:59:35;;;;;;;7.20;6.50;;;;;;;2.11;100.00;102974.00;4974109;28;20482;-59
2023/01/28 03:02:31;;;;;;;7.70;6.82;;;;;;;1.67;100.00;102897.97;4975205;28;20030;-61
2023/01/28 03:05:24;;;;;;;6.72;6.13;;;;;;;2.16;100.00;102985.47;4975376;28;20041;-58
2023/01/28 03:07:51;;;;;;;8.65;7.22;;;;;;;1.82;100.00;102933.09;4975030;28;20027;-58
2023/01/28 03:10:19;;;;;;;7.30;6.60;;;;;;;1.97;100.00;102957.91;4975057;28;20047;-59
2023/01/28 03:38:40;;;;;;;7.93;6.32;;;;;;;2.09;100.00;102968.75;4973634;28;20194;-58
2023/01/28 03:41:08;;;;;;;7.00;6.13;;;;;;;1.68;100.00;102885.88;4974181;28;20062;-57
2023/01/28 03:43:34;;;;;;;7.30;6.60;;;;;;;2.07;100.00;102965.19;4972876;28;20410;-57
2023/01/28 03:46:00;;;;;;;8.35;5.97;;;;;;;1.81;100.00;102923.56;4974255;28;20042;-60
2023/01/28 03:48:27;;;;;;;7.40;6.57;;;;;;;1.61;100.00;102894.25;4974543;28;20173;-58
2023/01/28 03:50:54;;;;;;;7.15;6.30;;;;;;;1.63;100.00;102911.66;4973150;28;20034;-59
2023/01/28 03:53:20;;;;;;;6.65;6.05;;;;;;;1.67;100.00;102921.31;4973422;28;20031;-59
2023/01/28 03:55:47;;;;;;;7.13;6.40;;;;;;;2.06;100.00;102984.22;4973257;28;20042;-60
2023/01/28 03:58:13;;;;;;;7.22;6.28;;;;;;;2.01;100.00;102978.00;4974099;28;20066;-61
2023/01/28 04:00:42;;;;;;;8.25;6.25;;;;;;;2.13;100.00;103004.38;4974157;28;20217;-60
2023/01/28 04:03:15;;;;;;;8.10;7.30;;;;;;;2.02;100.00;102997.03;4974358;28;20031;-58
2023/01/28 04:05:45;;;;;;;9.32;6.72;;;;;;;2.13;100.00;103003.53;4973968;28;20038;-60
2023/01/28 04:08:13;;;;;;;7.45;6.72;;;;;;;2.13;100.00;103004.38;4974238;28;20354;-60
2023/01/28 04:10:39;;;;;;;8.20;6.85;;;;;;;2.01;100.00;102978.00;4972315;28;20053;-59
2023/01/28 04:13:05;;;;;;;7.65;6.95;;;;;;;1.60;100.00;102906.38;4974061;28;20363;-58
2023/01/28 04:15:31;;;;;;;6.95;6.25;;;;;;;2.06;100.00;102994.63;4974120;28;20047;-59
2023/01/28 04:17:56;;;;;;;6.88;5.93;;;;;;;2.11;100.00;103016.44;4974055;28;20442;-60
2023/01/28 04:20:22;;;;;;;6.10;5.60;;;;;;;2.13;100.00;103003.53;4973870;28;20038;-60
2023/01/28 04:22:47;;;;;;;6.78;5.65;;;;;;;2.03;100.00;102991.03;4973740;28;20046;-56
2023/01/28 04:25:14;;;;;;;5.95;5.15;;;;;;;1.60;100.00;102908.97;4973799;28;20050;-58
2023/01/28 04:27:39;;;;;;;6.63;5.93;;;;;;;1.73;100.00;102932.75;4956673;28;20102;-62
2023/01/28 04:30:05;;;;;;;7.35;6.65;;;;;;;2.14;100.00;103023.47;4972008;28;20039;-60
2023/01/28 04:32:30;;;;;;;6.90;6.20;;;;;;;2.12;100.00;103000.03;4973550;28;20058;-58
2023/01/28 04:34:55;;;;;;;7.03;6.32;;;;;;;2.13;100.00;102996.59;4972417;28;20027;-58
2023/01/28 04:37:21;;;;;;;7.20;6.50;;;;;;;2.11;100.00;102993.06;4973902;28;20038;-58
2023/01/28 04:39:46;;;;;;;6.47;5.88;;;;;;;1.71;100.00;102924.94;4973542;28;20046;-61
2023/01/28 04:42:11;;;;;;;6.55;5.85;;;;;;;1.77;100.00;102935.53;4973582;28;20054;-60
2023/01/28 04:44:37;;;;;;;8.27;5.80;;;;;;;1.96;100.00;102969.13;4973590;28;20048;-56
2023/01/28 04:47:02;;;;;;;5.72;5.13;;;;;;;2.13;100.00;102990.53;4973192;28;20043;-60
2023/01/28 04:49:27;;;;;;;6.40;5.80;;;;;;;1.70;100.00;102917.97;4973314;28;20046;-59
2023/01/28 04:51:53;;;;;;;6.35;5.75;;;;;;;2.12;100.00;102988.75;4973932;28;20050;-57
2023/01/28 04:54:18;;;;;;;6.47;5.35;;;;;;;1.48;100.00;102874.78;4972986;28;20035;-59
2023/01/28 04:56:43;;;;;;;6.72;6.00;;;;;;;1.67;100.00;102912.66;4973381;28;20031;-60
2023/01/28 04:59:09;;;;;;;6.00;5.45;;;;;;;2.03;100.00;102978.94;4971869;28;20042;-57
2023/01/28 05:01:34;;;;;;;5.70;5.20;;;;;;;2.09;100.00;102988.66;4971680;28;20434;-60
2023/01/28 05:04:04;;;;;;;6.75;6.10;;;;;;;2.00;100.00;102984.00;4971946;28;20457;-59
2023/01/28 05:06:32;;;;;;;6.05;5.47;;;;;;;2.11;100.00;103002.56;4972157;28;20031;-59
2023/01/28 05:08:57;;;;;;;6.70;6.05;;;;;;;1.64;100.00;102925.50;4953698;28;20035;-60
2023/01/28 05:11:23;;;;;;;6.70;6.10;;;;;;;2.10;100.00;103000.81;4952549;28;20045;-60
2023/01/28 05:13:50;;;;;;;6.40;5.70;;;;;;;2.10;100.00;103014.66;4953926;28;20031;-58
2023/01/28 05:16:15;;;;;;;6.03;5.43;;;;;;;1.66;100.00;102924.75;4952425;28;20058;-60
2023/01/28 05:18:41;;;;;;;6.35;5.72;;;;;;;2.05;100.00;102997.16;4953651;28;20098;-59
2023/01/28 05:21:07;;;;;;;8.52;6.30;;;;;;;2.08;100.00;103003.34;4972937;28;20438;-58
2023/01/28 05:23:33;;;;;;;6.55;4.78;;;;;;;2.09;100.00;102991.25;4973077;28;20030;-59
2023/01/28 05:25:58;;;;;;;7.07;6.20;;;;;;;2.08;100.00;102994.66;4971567;28;20043;-59
2023/01/28 05:28:24;;;;;;;6.55;5.90;;;;;;;2.09;100.00;102994.75;4972314;28;20035;-61
2023/01/28 05:30:49;;;;;;;6.63;6.03;;;;;;;2.10;100.00;102998.22;4972898;28;20077;-60
2023/01/28 05:33:15;;;;;;;6.35;5.75;;;;;;;2.04;100.00;103003.19;4971098;28;20030;-58
2023/01/28 05:35:41;;;;;;;6.80;6.10;;;;;;;1.92;100.00;102974.16;4972345;28;20158;-58
2023/01/28 05:38:07;;;;;;;6.72;6.03;;;;;;;1.58;100.00;102907.13;4970289;28;20115;-59
2023/01/28 05:40:32;;;;;;;6.30;5.75;;;;;;;2.05;100.00;102994.56;4969912;28;20059;-59
2023/01/28 05:42:57;;;;;;;6.90;5.85;;;;;;;1.97;100.00;102986.50;4971982;28;20137;-59
2023/01/28 05:45:23;;;;;;;6.90;5.35;;;;;;;1.63;100.00;102903.84;4971143;28;20398;-59
2023/01/28 05:47:48;;;;;;;6.57;5.93;;;;;;;2.06;100.00;102984.22;4972259;28;20041;-59
2023/01/28 05:50:14;;;;;;;6.65;5.68;;;;;;;2.03;100.00;102978.03;4972367;28;20062;-59
2023/01/28 05:52:39;;;;;;;6.53;5.75;;;;;;;2.01;100.00;102958.91;4971336;28;20118;-59
2023/01/28 05:55:05;;;;;;;6.57;5.63;;;;;;;1.67;100.00;102917.84;4972337;28;20046;-59
2023/01/28 05:57:30;;;;;;;7.03;6.25;;;;;;;2.07;100.00;102990.31;4955717;28;20039;-60
2023/01/28 05:59:56;;;;;;;6.90;6.20;;;;;;;2.04;100.00;102980.66;4955056;28;20482;-59
2023/01/28 06:02:21;;;;;;;6.82;6.13;;;;;;;2.06;100.00;102992.03;4970880;28;20042;-59
2023/01/28 06:04:46;;;;;;;6.90;6.20;;;;;;;2.01;100.00;103003.97;4970997;28;20122;-59
2023/01/28 06:07:12;;;;;;;8.00;6.13;;;;;;;1.75;100.00;102957.09;4971387;28;20039;-59
2023/01/28 06:09:38;;;;;;;7.55;6.30;;;;;;;1.99;100.00;103003.00;4971266;28;20042;-60
2023/01/28 06:12:04;;;;;;;7.93;6.55;;;;;;;1.99;100.00;102996.91;4972422;28;20130;-59
2023/01/28 06:14:29;;;;;;;7.20;6.32;;;;;;;1.62;100.00;102927.19;4971881;28;20031;-58
2023/01/28 06:16:54;;;;;;;7.50;6.63;;;;;;;1.85;100.00;102973.06;4971216;28;20562;-58
2023/01/28 06:19:20;;;;;;;6.85;6.05;;;;;;;1.92;100.00;102975.06;4975056;28;20038;-58
2023/01/28 06:21:45;;;;;;;6.15;5.63;;;;;;;1.59;100.00;102933.16;4975941;28;20053;-58
2023/01/28 06:24:10;;;;;;;8.13;6.85;;;;;;;1.53;100.00;102924.25;4975833;28;20031;-58
2023/01/28 06:26:36;;;;;;;8.40;6.93;;;;;;;2.02;100.00;103012.63;4975371;28;20134;-60
2023/01/28 06:29:01;;;;;;;7.32;6.60;;;;;;;2.02;100.00;103021.31;4976121;28;20149;-58
2023/01/28 06:31:26;;;;;;;8.27;7.25;;;;;;;1.50;100.00;102921.53;4975969;28;20050;-58
2023/01/28 06:33:52;;;;;;;7.72;6.68;;;;;;;1.54;100.00;102932.09;4976439;28;20106;-59
2023/01/28 06:36:17;;;;;;;10.20;7.15;;;;;;;1.99;100.00;103010.81;4974508;28;20465;-58
2023/01/28 06:38:42;;;;;;;7.50;6.80;;;;;;;1.78;100.00;102971.03;4974299;28;20443;-59
2023/01/28 06:41:08;;;;;;;7.80;6.85;;;;;;;1.77;100.00;102968.41;4975804;28;20505;-59
2023/01/28 06:43:33;;;;;;;8.02;6.70;;;;;;;1.45;100.00;102913.59;4974438;28;20053;-59
2023/01/28 06:45:59;;;;;;;9.00;7.32;;;;;;;1.55;100.00;102948.53;4975671;28;20320;-59
2023/01/28 06:48:25;;;;;;;9.00;7.05;;;;;;;1.38;100.00;102919.34;4975568;28;20030;-58
2023/01/28 06:50:51;;;;;;;8.55;7.65;;;;;;;1.87;100.00;103030.25;4975670;28;20094;-58
2023/01/28 06:53:17;;;;;;;9.10;7.55;;;;;;;1.74;100.00;102997.75;4974232;28;20031;-58
2023/01/28 06:55:42;;;;;;;8.00;7.20;;;;;;;1.85;100.00;103016.31;4974342;28;20049;-58
2023/01/28 06:58:08;;;;;;;9.38;7.22;;;;;;;1.83;100.00;103005.00;4975204;28;20027;-57
2023/01/28 07:00:33;;;;;;;8.40;7.55;;;;;;;1.35;100.00;102919.25;4975201;28;20050;-58
2023/01/28 07:02:58;;;;;;;8.88;6.88;;;;;;;1.80;100.00;103002.28;4975521;28;20049;-58
2023/01/28 07:05:24;;;;;;;8.32;7.53;;;;;;;1.76;100.00;103026.34;4975206;28;20038;-56
2023/01/28 07:07:50;;;;;;;7.55;6.60;;;;;;;1.30;100.00;102938.94;4957575;28;20521;-58
2023/01/28 07:10:16;;;;;;;7.15;6.45;;;;;;;1.69;100.00;103020.91;4975271;28;20502;-57
2023/01/28 07:12:41;;;;;;;8.27;6.63;;;;;;;1.14;100.00;102916.69;4975641;28;20038;-58
2023/01/28 07:15:07;;;;;;;8.85;6.95;;;;;;;1.23;100.00;102933.44;4974913;28;20499;-58
2023/01/28 07:17:32;;;;;;;7.78;6.63;;;;;;;1.21;100.00;102948.06;4974209;28;20035;-58
2023/01/28 07:19:58;;;;;;;7.90;7.10;;;;;;;1.54;100.00;102997.00;4974977;28;20406;-57
2023/01/28 07:22:23;;;;;;;8.15;6.88;;;;;;;1.61;100.00;103004.16;4975119;28;20359;-58
2023/01/28 07:24:48;;;;;;;8.63;7.07;;;;;;;1.45;100.00;102987.94;4974883;28;20467;-59
2023/01/28 07:27:14;;;;;;;7.57;6.78;;;;;;;1.54;100.00;103002.19;4975093;28;20034;-59
2023/01/28 07:29:40;;;;;;;7.90;7.10;;;;;;;1.61;100.00;103009.34;4973712;28;20105;-59
2023/01/28 07:32:06;;;;;;;10.80;8.02;;;;;;;1.66;100.00;103010.41;4974773;28;20035;-59
2023/01/28 07:34:32;;;;;;;8.98;7.32;;;;;;;1.50;100.00;102991.59;4975212;28;20430;-57
2023/01/28 07:36:57;;;;;;;8.82;7.18;;;;;;;1.64;100.00;103034.53;4973622;28;20071;-58
2023/01/28 07:39:23;;;;;;;7.80;7.05;;;;;;;1.62;100.00;103020.63;4975091;28;20089;-59
2023/01/28 07:41:48;;;;;;;8.10;7.30;;;;;;;1.13;100.00;102946.06;4973958;28;20082;-58
2023/01/28 07:44:13;;;;;;;9.07;7.32;;;;;;;1.16;100.00;102968.66;4974577;28;20490;-59
2023/01/28 07:46:38;;;;;;;8.48;7.68;;;;;;;0.90;100.00;102915.75;4974684;28;20106;-58
2023/01/28 07:49:04;;;;;;;7.97;6.65;;;;;;;1.33;100.00;103006.53;4974745;28;20043;-58
2023/01/28 07:51:29;;;;;;;8.57;7.47;;;;;;;1.45;100.00;103026.88;4974810;28;20047;-60
2023/01/28 07:53:54;;;;;;;9.65;8.00;;;;;;;1.05;100.00;102960.44;4973477;28;20446;-58
2023/01/28 07:56:20;;;;;;;9.52;8.45;;;;;;;1.38;100.00;103023.16;4973606;28;20430;-57
2023/01/28 07:58:49;;;;;;;9.73;7.93;;;;;;;1.28;100.00;103002.88;4974609;28;20100;-59
2023/01/28 08:01:14;;;;;;;8.55;7.40;;;;;;;1.29;100.00;103009.81;4974465;28;20117;-59
2023/01/28 08:03:39;;;;;;;8.60;7.80;;;;;;;1.29;100.00;103004.63;4974728;28;20125;-58
2023/01/28 08:06:05;;;;;;;8.68;7.88;;;;;;;1.14;100.00;102967.69;4974410;28;20448;-58
2023/01/28 08:08:30;;;;;;;11.80;8.77;;;;;;;1.57;100.00;103033.44;4974316;28;20498;-59
2023/01/28 08:10:56;;;;;;;9.98;7.78;;;;;;;1.72;100.00;103053.03;4972772;28;20042;-57
2023/01/28 08:13:21;;;;;;;8.35;7.55;;;;;;;1.39;100.00;103005.88;4973018;28;20383;-59
2023/01/28 08:15:46;;;;;;;10.15;7.82;;;;;;;1.72;100.00;103040.06;4973975;28;20039;-56
2023/01/28 08:18:13;;;;;;;10.35;7.75;;;;;;;1.73;100.00;103029.72;4973992;28;20031;-57
2023/01/28 08:20:40;;;;;;;8.70;7.60;;;;;;;1.93;100.00;103072.00;4972451;28;20043;-59
2023/01/28 08:23:06;;;;;;;8.15;7.15;;;;;;;1.99;100.00;103054.97;4972812;28;20077;-57
2023/01/28 08:25:32;;;;;;;8.13;7.28;;;;;;;2.00;100.00;103068.84;4973984;28;20030;-58
2023/01/28 08:27:58;;;;;;;8.68;7.63;;;;;;;2.00;100.00;103059.34;4972504;28;20497;-58
2023/01/28 08:30:23;;;;;;;8.18;7.38;;;;;;;2.13;100.00;103061.53;4973409;28;20062;-58
2023/01/28 08:32:48;;;;;;;8.95;7.72;;;;;;;1.77;100.00;103003.03;4973782;28;20037;-59
2023/01/28 08:35:14;;;;;;;9.02;7.70;;;;;;;1.85;100.00;103022.38;4973788;28;20066;-57
2023/01/28 08:37:39;;;;;;;7.97;7.18;;;;;;;2.24;100.00;103081.03;4973664;28;20065;-59
2023/01/28 08:40:05;;;;;;;9.18;7.88;;;;;;;2.30;100.00;103076.88;4956088;28;20101;-59
2023/01/28 08:42:30;;;;;;;8.30;7.53;;;;;;;2.37;100.00;103071.06;4973096;28;20094;-58
2023/01/28 08:44:55;;;;;;;8.35;7.45;;;;;;;2.45;100.00;103080.06;4973210;28;20038;-57
2023/01/28 08:47:21;;;;;;;8.48;7.68;;;;;;;2.45;100.00;103077.47;4973290;28;20034;-58
2023/01/28 08:49:46;;;;;;;8.57;7.38;;;;;;;2.48;100.00;103086.22;4972758;28;20058;-58
2023/01/28 08:52:11;;;;;;;8.77;7.88;;;;;;;2.45;100.00;103090.44;4973600;28;20034;-58
2023/01/28 08:54:37;;;;;;;8.73;7.78;;;;;;;2.33;100.00;103082.22;4973539;28;20062;-58
2023/01/28 08:57:03;;;;;;;9.63;8.25;;;;;;;1.90;100.00;103018.25;4972317;28;20050;-58
2023/01/28 08:59:28;;;;;;;9.18;8.27;;;;;;;2.25;100.00;103090.59;4973364;28;20043;-58
2023/01/28 09:01:53;;;;;;;9.55;8.10;;;;;;;2.28;100.00;103085.50;4973292;28;20640;-59
2023/01/28 09:04:19;;;;;;;9.82;7.20;;;;;;;2.46;100.00;103100.00;4971856;28;20062;-59
2023/01/28 09:06:44;;;;;;;8.65;7.75;;;;;;;2.19;100.00;103016.72;4971963;28;20520;-58
2023/01/28 09:09:09;;;;;;;8.27;7.28;;;;;;;2.74;100.00;103103.63;4973449;28;20482;-58
2023/01/28 09:11:35;;;;;;;14.50;7.50;;;;;;;2.45;100.00;103020.28;4973299;28;20118;-59
2023/01/28 09:14:00;;;;;;;7.20;6.50;;;;;;;2.58;100.00;103038.06;4973511;28;20043;-58
2023/01/28 09:16:25;;;;;;;7.53;5.68;;;;;;;3.11;100.00;103112.75;4973559;28;20042;-58
2023/01/28 09:18:52;;;;;;;7.70;6.88;;;;;;;2.77;100.00;103056.94;4973410;28;20073;-59
2023/01/28 09:21:18;;;;;;;6.63;6.03;;;;;;;3.09;100.00;103089.28;4971841;28;20039;-59
2023/01/28 09:23:43;;;;;;;7.72;6.15;;;;;;;2.95;100.00;103029.81;4973089;28;20386;-59
2023/01/28 09:26:08;;;;;;;6.80;6.10;;;;;;;3.17;100.00;103053.97;4973027;28;20058;-57
2023/01/28 09:28:34;;;;;;;6.53;5.93;;;;;;;3.63;100.00;103139.66;4973418;28;20027;-58
2023/01/28 09:31:07;;;;;;;6.35;5.75;;;;;;;3.41;100.00;103098.16;4970495;28;20154;-58
2023/01/28 09:33:34;;;;;;;6.28;5.47;;;;;;;3.51;100.00;103152.28;4970964;28;20458;-57
2023/01/28 09:36:00;;;;;;;6.82;6.22;;;;;;;2.95;100.00;103066.22;4971659;28;20438;-58
2023/01/28 09:38:26;;;;;;;6.72;6.13;;;;;;;3.28;100.00;103145.41;4971286;28;20026;-58
2023/01/28 09:40:51;;;;;;;7.30;6.60;;;;;;;2.76;100.00;103078.59;4972373;28;20047;-58
2023/01/28 09:43:28;;;;;;;8.77;6.32;;;;;;;2.77;100.00;103082.94;4970276;28;20133;-59
2023/01/28 09:45:58;;;;;;;6.53;5.88;;;;;;;3.05;100.00;103142.03;4971623;28;20057;-60
2023/01/28 09:48:52;;;;;;;8.10;5.95;;;;;;;2.92;100.00;103139.81;4955364;28;20492;-60
2023/01/28 09:51:21;;;;;;;6.35;5.75;;;;;;;2.73;100.00;103155.63;4950915;28;20512;-59
2023/01/28 09:53:47;;;;;;;6.63;5.93;;;;;;;2.56;100.00;103146.31;4974217;28;20409;-58
2023/01/28 09:56:19;;;;;;;8.68;6.72;;;;;;;1.98;100.00;103067.91;4959406;28;20031;-58
2023/01/28 09:58:45;;;;;;;8.73;6.45;;;;;;;1.93;100.00;103104.06;4975290;28;20043;-59
2023/01/28 10:01:22;;;;;;;6.88;6.18;;;;;;;2.24;100.00;103165.91;4975126;28;20031;-59
2023/01/28 10:04:09;;;;;;;7.00;5.82;;;;;;;2.14;100.00;103171.56;4976625;28;20078;-59
2023/01/28 10:07:06;;;;;;;8.48;6.00;;;;;;;2.11;100.00;103172.31;4976620;28;20038;-59
2023/01/28 10:09:45;;;;;;;7.40;6.13;;;;;;;2.07;100.00;103165.22;4949771;28;20046;-59
2023/01/28 10:12:28;;;;;;;6.43;5.82;;;;;;;2.03;100.00;103162.47;4975062;28;20070;-59
2023/01/28 10:15:08;;;;;;;7.07;6.38;;;;;;;2.01;100.00;103171.91;4976351;28;20389;-59
2023/01/28 10:17:39;;;;;;;6.75;6.15;;;;;;;1.55;100.00;103078.31;4975134;28;20035;-58
2023/01/28 10:20:10;;;;;;;6.22;5.63;;;;;;;1.96;100.00;103158.72;4974884;28;20039;-58
2023/01/28 10:22:43;;;;;;;8.65;6.10;;;;;;;1.45;100.00;103058.91;4975843;28;20038;-59
2023/01/28 10:25:21;;;;;;;9.23;6.63;;;;;;;1.64;100.00;103089.94;4974875;28;20110;-58
2023/01/28 10:27:48;;;;;;;7.72;6.07;;;;;;;1.60;100.00;103082.00;4974995;28;20034;-59
2023/01/28 10:30:26;;;;;;;7.95;6.70;;;;;;;2.09;100.00;103165.31;4974871;28;20038;-58
2023/01/28 10:33:03;;;;;;;6.93;5.68;;;;;;;2.08;100.00;103166.13;4974837;28;20186;-58
2023/01/28 10:35:38;;;;;;;6.55;5.95;;;;;;;1.95;100.00;103122.31;4974769;28;20035;-59
2023/01/28 10:38:07;;;;;;;7.10;6.20;;;;;;;2.06;100.00;103152.19;4975161;28;20126;-60
2023/01/28 10:40:33;;;;;;;4.82;4.32;;;;;;;1.58;100.00;103063.75;4975788;28;20098;-60
2023/01/28 10:42:58;;;;;;;5.70;4.90;;;;;;;2.00;100.00;103131.16;4974540;28;20050;-58
2023/01/28 10:46:02;;;;;;;5.13;4.63;;;;;;;2.10;100.00;103141.97;4975642;28;20459;-59
2023/01/28 10:48:36;;;;;;;7.22;5.45;;;;;;;1.73;100.00;103075.56;4976055;28;20184;-58
2023/01/28 10:51:03;;;;;;;4.03;3.65;;;;;;;1.96;100.00;103106.78;4974331;28;20046;-58
2023/01/28 10:53:40;;;;;;;6.93;3.80;;;;;;;1.66;100.00;103045.91;4974318;28;20093;-58
2023/01/28 10:56:08;;;;;;;7.45;4.00;;;;;;;2.00;100.00;103100.91;4974010;28;20037;-57
2023/01/28 10:58:45;;;;;;;4.65;3.85;;;;;;;1.77;100.00;103057.56;4974284;28;20497;-57
2023/01/28 11:01:10;;;;;;;5.63;4.60;;;;;;;2.00;100.00;103081.81;4974247;28;20122;-59
2023/01/28 11:03:36;;;;;;;5.68;3.38;;;;;;;2.02;100.00;103070.66;4973772;28;20469;-59
2023/01/28 11:06:02;;;;;;;4.68;3.50;;;;;;;2.04;100.00;103053.41;4974112;28;20042;-59
2023/01/28 11:08:29;;;;;;;4.30;2.85;;;;;;;1.73;100.00;102993.34;4973466;28;20115;-59
2023/01/28 11:10:55;;;;;;;6.47;3.33;;;;;;;1.78;100.00;102997.00;4974150;28;20050;-59
2023/01/28 11:13:21;;;;;;;6.28;3.67;;;;;;;2.27;100.00;103095.84;4973354;28;20039;-58
2023/01/28 11:15:49;;;;;;;5.47;3.38;;;;;;;1.86;100.00;102984.31;4975118;28;20033;-58
2023/01/28 11:18:18;;;;;;;7.05;6.03;;;;;;;1.91;100.00;102983.66;4973602;28;20077;-60
2023/01/28 11:20:51;;;;;;;7.93;5.60;;;;;;;2.41;100.00;103031.38;4973505;28;20528;-56
2023/01/28 11:23:23;;;;;;;6.55;4.72;;;;;;;2.45;100.00;103038.47;4973593;28;20030;-58
2023/01/28 11:26:02;;;;;;;6.05;5.32;;;;;;;2.24;100.00;102981.41;4974763;28;20027;-58
2023/01/28 11:28:28;;;;;;;8.15;5.57;;;;;;;2.62;100.00;103037.34;4974651;28;20027;-59
2023/01/28 11:30:55;;;;;;;7.07;5.50;;;;;;;2.60;100.00;103010.38;4973356;28;20038;-60
2023/01/28 11:33:43;;;;;;;6.32;4.40;;;;;;;2.59;100.00;103003.44;4973355;28;20478;-60
2023/01/28 11:36:29;;;;;;;7.80;4.72;;;;;;;2.63;100.00;103019.19;4973357;28;20447;-58
2023/01/28 11:38:57;;;;;;;15.50;5.47;;;;;;;2.60;100.00;103034.66;4973200;28;20050;-58
2023/01/28 11:41:35;;;;;;;5.43;4.38;;;;;;;2.63;100.00;103037.38;4974983;28;20030;-60
2023/01/28 11:44:18;;;;;;;6.95;4.72;;;;;;;2.65;100.00;103042.66;4972718;28;20055;-58
2023/01/28 11:46:52;;;;;;;6.10;5.35;;;;;;;2.63;100.00;103032.19;4974659;28;20034;-59
2023/01/28 11:49:34;;;;;;;6.20;5.60;;;;;;;2.79;100.00;103038.81;4973313;28;20031;-58
2023/01/28 11:52:41;;;;;;;7.43;6.35;;;;;;;2.82;100.00;103032.00;4974501;28;20030;-58
2023/01/28 11:55:31;;;;;;;9.98;6.25;;;;;;;2.87;100.00;103034.75;4957310;28;20039;-60
2023/01/28 11:58:13;;;;;;;7.10;6.40;;;;;;;2.83;100.00;103038.94;4974444;28;20479;-65